Home > Products > Valid Products > TAF

000
FTUS46 KMTR 301300 AAA
TAFLVK
TAF AMD
KLVK 301301Z 3013/3112 29006KT P6SM BKN009
     FM301700 29006KT P6SM SCT010
     FM301900 29012KT P6SM SKC
     FM310400 29005KT P6SM SKC=



000
FTUS46 KMTR 301300 AAA
TAFLVK
TAF AMD
KLVK 301301Z 3013/3112 29006KT P6SM BKN009
     FM301700 29006KT P6SM SCT010
     FM301900 29012KT P6SM SKC
     FM310400 29005KT P6SM SKC=



000
FTUS46 KMTR 301100
TAFSTS
TAF
KSTS 301124Z 3012/3112 VRB02KT 2SM BR OVC002
     FM301600 VRB03KT 6SM BR BKN005
     FM301800 15005KT P6SM SCT007
     FM302000 18008KT P6SM SKC
     FM310600 15004KT P6SM BKN007
     FM310900 VRB02KT P6SM OVC005=



000
FTUS46 KMTR 301100
TAFMRY
TAF
KMRY 301124Z 3012/3112 00000KT 2SM BR OVC003
      TEMPO 3012/3016 1/2SM FG VV002
     FM301600 VRB03KT 6SM BR OVC006
     FM301800 28007KT P6SM SCT010
     FM310300 VRB03KT P6SM OVC007
     FM311000 VRB02KT P6SM OVC005=



000
FTUS46 KMTR 301100
TAFLVK
TAF
KLVK 301124Z 3012/3112 VRB03KT P6SM FEW010
      TEMPO 3014/3016 BKN010
     FM301700 29006KT P6SM SCT010
     FM301900 29012KT P6SM SKC
     FM310400 29005KT P6SM SKC=



000
FTUS46 KMTR 301100
TAFSJC
TAF
KSJC 301124Z 3012/3112 30004KT P6SM OVC010
     FM301700 30005KT P6SM SCT012
     FM301900 30012G18KT P6SM SKC
     FM310400 30005KT P6SM SKC
     FM310900 VRB03KT P6SM BKN010=



000
FTUS46 KMTR 301100
TAFSFO
TAF
KSFO 301124Z 3012/3118 27010KT P6SM OVC005
     FM301600 28008KT P6SM FEW006 BKN008
     FM301800 28010KT P6SM FEW008 SCT012
     FM302000 28017G24KT P6SM FEW015
     FM310300 28015KT P6SM SCT010
     FM310500 28010KT P6SM OVC008
     FM311759 29011KT P6SM FEW008 SCT012=



000
FTUS46 KMTR 301100
TAFLVK
TAF
KLVK 301124Z 3012/3112 VRB03KT P6SM FEW010
      TEMPO 3014/3016 BKN010
     FM301700 29006KT P6SM SCT010
     FM301900 29012KT P6SM SKC
     FM310400 29005KT P6SM SKC=



000
FTUS46 KMTR 301100
TAFSNS
TAF
KSNS 301124Z 3012/3112 27008KT 2SM BR OVC003
     FM301600 VRB03KT 6SM BR OVC007
     FM301800 27005KT P6SM SCT010
     FM302000 27010KT P6SM SKC
     FM310300 29008KT P6SM BKN008
     FM311000 VRB03KT P6SM OVC006=



000
FTUS46 KMTR 301100
TAFOAK
TAF
KOAK 301124Z 3012/3118 27006KT P6SM OVC007
     FM301700 28008KT P6SM BKN009
     FM301900 29010KT P6SM SCT012
     FM302100 29012KT P6SM FEW010
     FM310200 29010KT P6SM SCT010
     FM310600 29006KT P6SM OVC009
     FM311000 29006KT P6SM OVC007=



000
FTUS46 KMTR 301100
TAFMRY
TAF
KMRY 301124Z 3012/3112 00000KT 2SM BR OVC003
      TEMPO 3012/3016 1/2SM FG VV002
     FM301600 VRB03KT 6SM BR OVC006
     FM301800 28007KT P6SM SCT010
     FM310300 VRB03KT P6SM OVC007
     FM311000 VRB02KT P6SM OVC005=



000
FTUS46 KMTR 301100
TAFSFO
TAF
KSFO 301124Z 3012/3118 27010KT P6SM OVC005
     FM301600 28008KT P6SM FEW006 BKN008
     FM301800 28010KT P6SM FEW008 SCT012
     FM302000 28017G24KT P6SM FEW015
     FM310300 28015KT P6SM SCT010
     FM310500 28010KT P6SM OVC008
     FM311759 29011KT P6SM FEW008 SCT012=



000
FTUS46 KMTR 301100
TAFOAK
TAF
KOAK 301124Z 3012/3118 27006KT P6SM OVC007
     FM301700 28008KT P6SM BKN009
     FM301900 29010KT P6SM SCT012
     FM302100 29012KT P6SM FEW010
     FM310200 29010KT P6SM SCT010
     FM310600 29006KT P6SM OVC009
     FM311000 29006KT P6SM OVC007=



000
FTUS46 KMTR 301100
TAFSTS
TAF
KSTS 301124Z 3012/3112 VRB02KT 2SM BR OVC002
     FM301600 VRB03KT 6SM BR BKN005
     FM301800 15005KT P6SM SCT007
     FM302000 18008KT P6SM SKC
     FM310600 15004KT P6SM BKN007
     FM310900 VRB02KT P6SM OVC005=



000
FTUS46 KMTR 301100
TAFSNS
TAF
KSNS 301124Z 3012/3112 27008KT 2SM BR OVC003
     FM301600 VRB03KT 6SM BR OVC007
     FM301800 27005KT P6SM SCT010
     FM302000 27010KT P6SM SKC
     FM310300 29008KT P6SM BKN008
     FM311000 VRB03KT P6SM OVC006=



000
FTUS46 KMTR 301100
TAFSJC
TAF
KSJC 301124Z 3012/3112 30004KT P6SM OVC010
     FM301700 30005KT P6SM SCT012
     FM301900 30012G18KT P6SM SKC
     FM310400 30005KT P6SM SKC
     FM310900 VRB03KT P6SM BKN010=



000
FTUS46 KMTR 300800 AAA
TAFSFO
TAF AMD
KSFO 300859Z 3009/3112 29010KT P6SM FEW004 OVC009
     FM301600 28005KT P6SM FEW004 BKN010
     FM301830 28010KT P6SM FEW008 SCT012
     FM302000 28017G24KT P6SM FEW015
     FM310300 28015KT P6SM BKN010
     FM310500 28010KT P6SM BKN008=



000
FTUS46 KMTR 300800 AAB
TAFMRY
TAF AMD
KMRY 300807Z 3008/3106 00000KT 1/2SM FG VV002
     FM301600 VRB03KT 6SM BR OVC005
     FM301800 28007KT P6SM BKN009
     FM310300 24004KT P6SM OVC004=



000
FTUS46 KMTR 300800 AAB
TAFMRY
TAF AMD
KMRY 300807Z 3008/3106 00000KT 1/2SM FG VV002
     FM301600 VRB03KT 6SM BR OVC005
     FM301800 28007KT P6SM BKN009
     FM310300 24004KT P6SM OVC004=



000
FTUS46 KMTR 300800 AAA
TAFMRY
TAF AMD
KMRY 300802Z 3008/3106 22005KT 4SM -DZ BR OVC003
      TEMPO 3008/3012 2SM BR OVC002
     FM301800 28007KT P6SM BKN009
     FM310300 24004KT P6SM OVC004=



000
FTUS46 KMTR 300500
TAFSJC
TAF
KSJC 300522Z 3006/3106 30008KT P6SM SCT012
     FM300800 30004KT P6SM OVC009
     FM301700 30005KT P6SM SCT012
     FM301900 30012KT P6SM SKC
     FM310400 30005KT P6SM SKC=



000
FTUS46 KMTR 300500
TAFMRY
TAF
KMRY 300522Z 3006/3106 22005KT 4SM -DZ BR OVC003
     FM301800 28007KT P6SM BKN009
     FM310300 24004KT P6SM OVC004=



000
FTUS46 KMTR 300500
TAFSTS
TAF
KSTS 300522Z 3006/3106 VRB02KT 5SM BR OVC003
     FM301800 15005KT P6SM SCT007
     FM302000 18008KT P6SM SKC
     FM310400 15004KT P6SM SKC=



000
FTUS46 KMTR 300500
TAFSNS
TAF
KSNS 300522Z 3006/3106 27008KT 4SM BR OVC004
     FM301600 VRB03KT 6SM BR OVC007
     FM301800 27005KT P6SM SCT010
     FM302000 27010KT P6SM SKC
     FM310200 27008KT P6SM BKN008=



000
FTUS46 KMTR 300500
TAFOAK
TAF
KOAK 300522Z 3006/3112 27006KT P6SM OVC008
     FM301900 29010KT P6SM SCT012
     FM302100 29012KT P6SM FEW010
     FM310300 29010KT P6SM BKN010
     FM310600 29006KT P6SM OVC008=



000
FTUS46 KMTR 300500
TAFSFO
TAF
KSFO 300522Z 3006/3112 28010KT P6SM FEW004 BKN008
     FM301600 28005KT P6SM FEW004 BKN010
     FM301830 28010KT P6SM FEW008 SCT012
     FM302000 28017G24KT P6SM FEW015
     FM310300 28015KT P6SM BKN010
     FM310500 28010KT P6SM BKN008=



000
FTUS46 KMTR 300500
TAFLVK
TAF
KLVK 300522Z 3006/3106 30006KT P6SM SKC
     FM301200 VRB03KT P6SM BKN007
     FM301700 29006KT P6SM SCT010
     FM301900 29012KT P6SM SKC
     FM310400 29005KT P6SM SKC=



000
FTUS46 KMTR 300500
TAFSJC
TAF
KSJC 300522Z 3006/3106 30008KT P6SM SCT012
     FM300800 30004KT P6SM OVC009
     FM301700 30005KT P6SM SCT012
     FM301900 30012KT P6SM SKC
     FM310400 30005KT P6SM SKC=



000
FTUS46 KMTR 300500
TAFOAK
TAF
KOAK 300522Z 3006/3112 27006KT P6SM OVC008
     FM301900 29010KT P6SM SCT012
     FM302100 29012KT P6SM FEW010
     FM310300 29010KT P6SM BKN010
     FM310600 29006KT P6SM OVC008=



000
FTUS46 KMTR 300500
TAFSFO
TAF
KSFO 300522Z 3006/3112 28010KT P6SM FEW004 BKN008
     FM301600 28005KT P6SM FEW004 BKN010
     FM301830 28010KT P6SM FEW008 SCT012
     FM302000 28017G24KT P6SM FEW015
     FM310300 28015KT P6SM BKN010
     FM310500 28010KT P6SM BKN008=



000
FTUS46 KMTR 300500
TAFLVK
TAF
KLVK 300522Z 3006/3106 30006KT P6SM SKC
     FM301200 VRB03KT P6SM BKN007
     FM301700 29006KT P6SM SCT010
     FM301900 29012KT P6SM SKC
     FM310400 29005KT P6SM SKC=



000
FTUS46 KMTR 300500
TAFMRY
TAF
KMRY 300522Z 3006/3106 22005KT 4SM -DZ BR OVC003
     FM301800 28007KT P6SM BKN009
     FM310300 24004KT P6SM OVC004=



000
FTUS46 KMTR 300500
TAFSTS
TAF
KSTS 300522Z 3006/3106 VRB02KT 5SM BR OVC003
     FM301800 15005KT P6SM SCT007
     FM302000 18008KT P6SM SKC
     FM310400 15004KT P6SM SKC=



000
FTUS46 KMTR 300500
TAFSNS
TAF
KSNS 300522Z 3006/3106 27008KT 4SM BR OVC004
     FM301600 VRB03KT 6SM BR OVC007
     FM301800 27005KT P6SM SCT010
     FM302000 27010KT P6SM SKC
     FM310200 27008KT P6SM BKN008=



000
FTUS46 KMTR 300300 AAA
TAFOAK
TAF AMD
KOAK 300305Z 3003/3106 28012KT P6SM OVC008
     FM300600 27006KT P6SM OVC006
     FM301900 29010KT P6SM BKN012
     FM302100 29012KT P6SM SCT015=



000
FTUS46 KMTR 300300 AAA
TAFOAK
TAF AMD
KOAK 300305Z 3003/3106 28012KT P6SM OVC008
     FM300600 27006KT P6SM OVC006
     FM301900 29010KT P6SM BKN012
     FM302100 29012KT P6SM SCT015=



000
FTUS46 KMTR 300300 AAA
TAFSFO
TAF AMD
KSFO 300304Z 3003/3106 27015G20KT P6SM BKN009
     FM300500 28010KT P6SM FEW004 OVC007
     FM301600 28005KT P6SM FEW004 BKN010
     FM301830 28010KT P6SM FEW008 SCT012
     FM302000 28017G24KT P6SM FEW015=



000
FTUS46 KMTR 300000 CCA
TAFSFO
TAF COR
KSFO 300005Z 3000/3106 28020G25KT P6SM SCT011 BKN200
     FM300100 27020G25KT P6SM BKN011
     FM300500 28010KT P6SM FEW004 OVC007
     FM301600 28005KT P6SM FEW004 BKN010
     FM301830 28010KT P6SM FEW008 SCT012
     FM302000 28017G24KT P6SM FEW015=



000
FTUS46 KMTR 292300
TAFSNS
TAF
KSNS 292338Z 3000/3024 27012KT P6SM SKC
     FM300400 27008KT 6SM BR BKN009
     FM301000 VRB03KT 4SM BR OVC003
     FM301600 VRB03KT 6SM BR OVC007
     FM301800 27005KT P6SM SCT010
     FM302000 27010KT P6SM SKC=



000
FTUS46 KMTR 292300
TAFSTS
TAF
KSTS 292338Z 3000/3024 18011G15KT P6SM SCT250
     FM300400 15003KT P6SM BKN007
     FM300600 VRB02KT 5SM BR OVC003
     FM301800 15005KT P6SM SCT007
     FM302000 18008KT P6SM SKC=



000
FTUS46 KMTR 292300
TAFOAK
TAF
KOAK 292338Z 3000/3106 27012KT P6SM SCT011 BKN200
     FM300200 28010KT P6SM BKN011
     FM300600 27006KT P6SM OVC006
     FM301900 29010KT P6SM BKN015=



000
FTUS46 KMTR 292300
TAFMRY
TAF
KMRY 292338Z 3000/3024 29008KT P6SM SCT009
     FM300100 25008KT 6SM BR OVC007
     FM300400 22005KT 4SM -DZ BR OVC003
     FM301800 28005KT P6SM BKN009=



000
FTUS46 KMTR 292300
TAFSFO
TAF
KSFO 292338Z 3000/3106 28020G25KT P6SM SCT011 BKN200
     FM300100 27015G20KT P6SM BKN011
     FM300500 28010KT P6SM FEW004 OVC007
     FM301600 28005KT P6SM FEW004 BKN010
     FM301830 28010KT P6SM FEW008 SCT012
     FM302000 28017G24KT P6SM FEW015=



000
FTUS46 KMTR 292300
TAFSJC
TAF
KSJC 292338Z 3000/3024 29010KT P6SM FEW014 SCT120 BKN170
     FM300500 30008KT P6SM SCT012
     FM300800 30004KT P6SM OVC009
     FM301700 30005KT P6SM SCT012
     FM301900 30012KT P6SM SKC=



000
FTUS46 KMTR 292300
TAFLVK
TAF
KLVK 292338Z 3000/3024 29014KT P6SM SKC
     FM300500 30006KT 6SM BR FEW010
     FM300800 VRB03KT P6SM BKN007
     FM301700 29006KT P6SM SCT010
     FM301900 29012KT P6SM SKC=



000
FTUS46 KMTR 292100 AAB
TAFSFO
TAF AMD
KSFO 292152Z 2922/3024 28020G25KT P6SM FEW005 SCT013 BKN200
      TEMPO 2922/3001 BKN013
     FM300100 27015G20KT P6SM BKN012
     FM300500 28010KT P6SM FEW004 OVC007
     FM301600 28005KT P6SM FEW004 OVC012
     FM301830 30010KT P6SM FEW008 SCT012=



000
FTUS46 KMTR 292100 AAB
TAFOAK
TAF AMD
KOAK 292152Z 2922/3024 27010KT P6SM FEW010 SCT015
      TEMPO 2923/3001 BKN015
     FM300100 28012KT P6SM BKN008
     FM300600 27006KT P6SM OVC006
     FM301900 29010KT P6SM BKN015=



000
FTUS46 KMTR 292100 AAA
TAFOAK
TAF AMD
KOAK 292104Z 2921/3024 27010KT P6SM FEW010 SCT015
     FM300100 28012KT P6SM BKN008
     FM300600 27006KT P6SM OVC006
     FM301900 29010KT P6SM BKN015=



000
FTUS46 KMTR 292100 AAA
TAFOAK
TAF AMD
KOAK 292104Z 2921/3024 27010KT P6SM FEW010 SCT015
     FM300100 28012KT P6SM BKN008
     FM300600 27006KT P6SM OVC006
     FM301900 29010KT P6SM BKN015=



000
FTUS46 KMTR 292100 AAA
TAFSFO
TAF AMD
KSFO 292101Z 2921/3024 28020G25KT P6SM FEW005 SCT013 BKN200
     FM300200 27015G20KT P6SM BKN012
     FM300500 28010KT P6SM FEW004 OVC007
     FM301600 28005KT P6SM FEW004 OVC012
     FM301830 30010KT P6SM FEW008 SCT012=



000
FTUS46 KMTR 292100 AAB
TAFSJC
TAF AMD
KSJC 292101Z 2921/3018 29010KT P6SM FEW014 SCT120 BKN170
     FM300500 30008KT P6SM SCT012
     FM300800 30004KT P6SM OVC009=



000
FTUS46 KMTR 292000 AAA
TAFSTS
TAF AMD
KSTS 292004Z 2920/3018 18011G15KT P6SM SCT250
     FM300400 15003KT P6SM BKN007
     FM300600 VRB02KT 5SM BR OVC003=



000
FTUS46 KMTR 292000 AAA
TAFSTS
TAF AMD
KSTS 292004Z 2920/3018 18011G15KT P6SM SCT250
     FM300400 15003KT P6SM BKN007
     FM300600 VRB02KT 5SM BR OVC003=



000
FTUS46 KMTR 292000 AAA
TAFMRY
TAF AMD
KMRY 292004Z 2920/3018 29008KT P6SM OVC009
     FM300100 25008KT 6SM BR OVC009
     FM300400 22005KT 4SM -DZ BR OVC003=



000
FTUS46 KMTR 291800 AAA
TAFSJC
TAF AMD
KSJC 291848Z 2919/3018 VRB03KT P6SM FEW015 SCT035
     FM292000 31012G18KT P6SM FEW035
     FM300500 30008KT P6SM SCT012
     FM300800 30004KT P6SM OVC009=



000
FTUS46 KMTR 291800 AAA
TAFSJC
TAF AMD
KSJC 291848Z 2919/3018 VRB03KT P6SM FEW015 SCT035
     FM292000 31012G18KT P6SM FEW035
     FM300500 30008KT P6SM SCT012
     FM300800 30004KT P6SM OVC009=



000
FTUS46 KMTR 291700
TAFOAK
TAF
KOAK 291740Z 2918/3024 24008KT P6SM BKN008 OVC015
     FM291930 29010KT P6SM SCT009 BKN015
     FM292100 28015G20KT P6SM FEW010 SCT015
     FM300100 28012KT P6SM BKN008
     FM300600 27006KT P6SM OVC006
     FM301900 29010KT P6SM BKN015=



000
FTUS46 KMTR 291700
TAFSJC
TAF
KSJC 291740Z 2918/3018 VRB03KT P6SM FEW012 SCT035
      TEMPO 2918/2919 BKN012
     FM292000 31012G18KT P6SM FEW035
     FM300500 30008KT P6SM SCT012
     FM300800 30004KT P6SM OVC009=



000
FTUS46 KMTR 291700
TAFLVK
TAF
KLVK 291740Z 2918/3018 25004KT P6SM FEW012
     FM292000 28010KT P6SM SKC
     FM292300 29015KT P6SM SKC
     FM300500 30006KT 6SM BR FEW010
     FM300800 VRB03KT P6SM BKN007=



000
FTUS46 KMTR 291700
TAFSTS
TAF
KSTS 291740Z 2918/3018 VRB03KT 6SM BR SCT007
     FM291900 16005KT P6SM SKC
     FM292100 18009KT P6SM SKC
     FM300400 15003KT P6SM BKN007
     FM300600 VRB02KT 5SM BR OVC003=



000
FTUS46 KMTR 291700
TAFSNS
TAF
KSNS 291740Z 2918/3018 26003KT P6SM OVC006
     FM291915 28005KT P6SM FEW010 SCT012
     FM292000 27012KT P6SM SKC
     FM300400 27008KT 6SM BR BKN009
     FM301000 VRB03KT 4SM BR OVC003
     FM301600 VRB03KT 6SM BR OVC007=



000
FTUS46 KMTR 291700
TAFMRY
TAF
KMRY 291740Z 2918/3018 VRB03KT 4SM BR OVC007
      TEMPO 2918/2920 2SM BR OVC002
     FM292000 28011KT P6SM FEW008 BKN012
     FM300100 25008KT 6SM BR OVC009
     FM300400 22005KT 4SM -DZ BR OVC003=



000
FTUS46 KMTR 291700
TAFSFO
TAF
KSFO 291740Z 2918/3024 28010KT P6SM FEW005 BKN008 BKN015
     FM291830 28013KT P6SM FEW008 SCT015
     FM292100 28020G25KT P6SM FEW010
     FM300200 27015G20KT P6SM BKN012
     FM300500 28010KT P6SM FEW004 OVC007
     FM301600 28005KT P6SM FEW004 OVC012
     FM301830 30010KT P6SM FEW008 SCT012=



000
FTUS46 KMTR 291700
TAFSFO
TAF
KSFO 291740Z 2918/3024 28010KT P6SM FEW005 BKN008 BKN015
     FM291830 28013KT P6SM FEW008 SCT015
     FM292100 28020G25KT P6SM FEW010
     FM300200 27015G20KT P6SM BKN012
     FM300500 28010KT P6SM FEW004 OVC007
     FM301600 28005KT P6SM FEW004 OVC012
     FM301830 30010KT P6SM FEW008 SCT012=



000
FTUS46 KMTR 291700
TAFSJC
TAF
KSJC 291740Z 2918/3018 VRB03KT P6SM FEW012 SCT035
      TEMPO 2918/2919 BKN012
     FM292000 31012G18KT P6SM FEW035
     FM300500 30008KT P6SM SCT012
     FM300800 30004KT P6SM OVC009=



000
FTUS46 KMTR 291700
TAFLVK
TAF
KLVK 291740Z 2918/3018 25004KT P6SM FEW012
     FM292000 28010KT P6SM SKC
     FM292300 29015KT P6SM SKC
     FM300500 30006KT 6SM BR FEW010
     FM300800 VRB03KT P6SM BKN007=



000
FTUS46 KMTR 291700
TAFSNS
TAF
KSNS 291740Z 2918/3018 26003KT P6SM OVC006
     FM291915 28005KT P6SM FEW010 SCT012
     FM292000 27012KT P6SM SKC
     FM300400 27008KT 6SM BR BKN009
     FM301000 VRB03KT 4SM BR OVC003
     FM301600 VRB03KT 6SM BR OVC007=



000
FTUS46 KMTR 291700
TAFOAK
TAF
KOAK 291740Z 2918/3024 24008KT P6SM BKN008 OVC015
     FM291930 29010KT P6SM SCT009 BKN015
     FM292100 28015G20KT P6SM FEW010 SCT015
     FM300100 28012KT P6SM BKN008
     FM300600 27006KT P6SM OVC006
     FM301900 29010KT P6SM BKN015=



000
FTUS46 KMTR 291700
TAFMRY
TAF
KMRY 291740Z 2918/3018 VRB03KT 4SM BR OVC007
      TEMPO 2918/2920 2SM BR OVC002
     FM292000 28011KT P6SM FEW008 BKN012
     FM300100 25008KT 6SM BR OVC009
     FM300400 22005KT 4SM -DZ BR OVC003=



000
FTUS46 KMTR 291700
TAFSTS
TAF
KSTS 291740Z 2918/3018 VRB03KT 6SM BR SCT007
     FM291900 16005KT P6SM SKC
     FM292100 18009KT P6SM SKC
     FM300400 15003KT P6SM BKN007
     FM300600 VRB02KT 5SM BR OVC003=



000
FTUS46 KMTR 291600 AAA
TAFSNS
TAF AMD
KSNS 291621Z 2916/3012 12005KT P6SM OVC004
     FM291730 26003KT P6SM FEW005 BKN008
     FM291900 28005KT P6SM FEW010 SCT012
     FM292000 27012KT P6SM SKC
     FM300200 27010KT P6SM BKN009
     FM301000 VRB03KT P6SM OVC005=



000
FTUS46 KMTR 291600 AAA
TAFSNS
TAF AMD
KSNS 291621Z 2916/3012 12005KT P6SM OVC004
     FM291730 26003KT P6SM FEW005 BKN008
     FM291900 28005KT P6SM FEW010 SCT012
     FM292000 27012KT P6SM SKC
     FM300200 27010KT P6SM BKN009
     FM301000 VRB03KT P6SM OVC005=



000
FTUS46 KMTR 291600 AAA
TAFLVK
TAF AMD
KLVK 291620Z 2916/3012 29003KT P6SM FEW012
      TEMPO 2916/2917 OVC011
     FM292100 28010KT P6SM SKC
     FM300800 27008KT P6SM BKN010=



000
FTUS46 KMTR 291500 AAB
TAFMRY
TAF AMD
KMRY 291510Z 2915/3012 VRB03KT 6SM BR OVC005
      TEMPO 2915/2917 2SM BR OVC002
     FM291700 VRB03KT P6SM SCT005 BKN008
     FM292000 28011KT P6SM FEW008 SCT011
     FM300000 25009KT P6SM OVC009
     FM300400 23006KT 6SM -DZ BR OVC005=



000
FTUS46 KMTR 291500 AAA
TAFSJC
TAF AMD
KSJC 291508Z 2915/3012 VRB03KT P6SM FEW004 BKN009 OVC012
     FM291630 VRB03KT P6SM BKN012
     FM291730 VRB03KT P6SM SCT012
     FM292000 30012KT P6SM SKC
     FM300500 30008KT P6SM BKN012
     FM300800 30004KT P6SM OVC009=



000
FTUS46 KMTR 291500 AAA
TAFSFO
TAF AMD
KSFO 291506Z 2915/3018 27008KT P6SM FEW004 BKN008 OVC011
     FM291830 28013KT P6SM SCT010
     FM292100 28018G25KT P6SM FEW010
     FM300100 27017G24KT P6SM BKN008
     FM300500 28010KT P6SM OVC007=



000
FTUS46 KMTR 291400 AAA
TAFOAK
TAF AMD
KOAK 291409Z 2914/3018 27006KT P6SM -DZ OVC008
     FM291900 29011KT P6SM SCT009
     FM292200 28013G20KT P6SM FEW010
     FM300100 28012KT P6SM BKN008
     FM300600 27007KT P6SM OVC006=



000
FTUS46 KMTR 291400 AAA
TAFOAK
TAF AMD
KOAK 291409Z 2914/3018 27006KT P6SM -DZ OVC008
     FM291900 29011KT P6SM SCT009
     FM292200 28013G20KT P6SM FEW010
     FM300100 28012KT P6SM BKN008
     FM300600 27007KT P6SM OVC006=



000
FTUS46 KMTR 291200 AAA
TAFMRY
TAF AMD
KMRY 291259Z 2913/3012 VRB03KT P6SM -DZ OVC005
     FM291700 VRB03KT P6SM SCT005 BKN008
     FM292000 28011KT P6SM FEW008 SCT011
     FM300000 25009KT P6SM OVC009
     FM300400 23006KT 6SM -DZ BR OVC005=



000
FTUS46 KMTR 291100
TAFLVK
TAF
KLVK 291139Z 2912/3012 30006KT P6SM OVC008
     FM291600 29003KT P6SM FEW012
     FM292100 28010KT P6SM SKC
     FM300800 27008KT P6SM BKN010=



000
FTUS46 KMTR 291100
TAFOAK
TAF
KOAK 291139Z 2912/3018 28006KT P6SM -DZ BKN005 OVC008
     FM291900 29011KT P6SM SCT009
     FM292200 28013G20KT P6SM FEW010
     FM300100 28012KT P6SM BKN008
     FM300600 27007KT P6SM OVC006=



000
FTUS46 KMTR 291100
TAFSNS
TAF
KSNS 291139Z 2912/3012 25006KT P6SM OVC004
     FM291600 26003KT P6SM FEW005 BKN008
     FM291800 28005KT P6SM FEW010 SCT012
     FM292000 27012KT P6SM SKC
     FM300200 27010KT P6SM BKN009
     FM301000 VRB03KT P6SM OVC005=



000
FTUS46 KMTR 291100
TAFSJC
TAF
KSJC 291139Z 2912/3012 11004KT P6SM OVC009
     FM291500 VRB03KT P6SM SCT010 BKN012
     FM291700 VRB03KT P6SM SCT012
     FM292000 30012KT P6SM SKC
     FM300500 30008KT P6SM BKN012
     FM300800 30004KT P6SM OVC009=



000
FTUS46 KMTR 291100
TAFSTS
TAF
KSTS 291139Z 2912/3012 00000KT 3SM BR OVC003
      TEMPO 2913/2915 2SM BR BCFG OVC002
     FM291800 VRB03KT P6SM FEW004 SCT009
     FM292100 17009KT P6SM SKC
     FM300500 VRB03KT P6SM BKN005
     FM301000 VRB02KT P6SM OVC004=



000
FTUS46 KMTR 291100
TAFSFO
TAF
KSFO 291139Z 2912/3018 27008KT P6SM -DZ FEW004 BKN007 OVC010
     FM291800 28013KT P6SM SCT010
     FM292100 28018G25KT P6SM FEW010
     FM300100 27017G24KT P6SM BKN008
     FM300500 28010KT P6SM OVC007=



000
FTUS46 KMTR 291100
TAFMRY
TAF
KMRY 291139Z 2912/3012 VRB03KT 4SM -DZ BR OVC002
     FM291700 VRB03KT P6SM SCT005 BKN008
     FM292000 28011KT P6SM FEW008 SCT011
     FM300000 25009KT P6SM OVC009
     FM300400 23006KT 6SM -DZ BR OVC005=



000
FTUS46 KMTR 290900 AAA
TAFSFO
TAF AMD
KSFO 290916Z 2909/3012 27012KT P6SM FEW005 BKN007 OVC010
     FM291000 27008KT P6SM OVC006
     FM291800 28013KT P6SM SCT008
     FM292100 28018G25KT P6SM FEW007
     FM300100 27017G24KT P6SM BKN008
     FM300500 28012KT P6SM OVC007=



000
FTUS46 KMTR 290700 CCA
TAFMRY
TAF COR
KMRY 290731Z 2907/3006 VRB03KT 6SM -DZ BR BCFG OVC002
     FM291700 VRB03KT P6SM SCT005 BKN008
     FM292100 28008KT P6SM SCT011
     FM300000 25007KT P6SM OVC009
     FM300400 23006KT P6SM OVC005=



000
FTUS46 KMTR 290700 AAA
TAFMRY
TAF AMD
KMRY 290729Z 2907/3006 VRB03KT 6SM -DZ BCFG OVC002
     FM291700 VRB03KT P6SM SCT005 BKN008
     FM292100 28008KT P6SM SCT011
     FM300000 25007KT P6SM OVC009
     FM300400 23006KT P6SM OVC005=



000
FTUS46 KMTR 290500
TAFMRY
TAF
KMRY 290538Z 2906/3006 22005KT P6SM OVC004
     FM291700 VRB03KT P6SM SCT005 BKN008
     FM292100 28008KT P6SM SCT011
     FM300000 25007KT P6SM OVC009
     FM300400 23006KT P6SM OVC005=



000
FTUS46 KMTR 290500
TAFSFO
TAF
KSFO 290538Z 2906/3012 27012KT P6SM FEW005 BKN007 OVC010
     FM291000 27008KT P6SM OVC006
     FM291800 28013KT P6SM SCT008
     FM292100 28018G25KT P6SM FEW007
     FM300100 27017G24KT P6SM BKN008
     FM300500 28012KT P6SM OVC007=



000
FTUS46 KMTR 290500
TAFLVK
TAF
KLVK 290538Z 2906/3006 31007KT P6SM FEW012
     FM290800 27007KT P6SM BKN012
     FM291000 27006KT P6SM OVC009
     FM291600 29003KT P6SM FEW012
     FM292100 28010KT P6SM SKC=



000
FTUS46 KMTR 290500
TAFSFO
TAF
KSFO 290538Z 2906/3012 27012KT P6SM FEW005 BKN007 OVC010
     FM291000 27008KT P6SM OVC006
     FM291800 28013KT P6SM SCT008
     FM292100 28018G25KT P6SM FEW007
     FM300100 27017G24KT P6SM BKN008
     FM300500 28012KT P6SM OVC007=



000
FTUS46 KMTR 290500
TAFSNS
TAF
KSNS 290538Z 2906/3006 27010KT P6SM OVC006
     FM290900 25006KT P6SM OVC004
     FM291500 26003KT P6SM FEW005 BKN008
     FM291700 28005KT P6SM SCT010
     FM292000 27012KT P6SM SKC
     FM300200 27010KT P6SM BKN009=



000
FTUS46 KMTR 290500
TAFSJC
TAF
KSJC 290538Z 2906/3006 30006KT P6SM BKN009
     FM291100 11004KT P6SM OVC007
     FM291500 VRB03KT P6SM SCT008 OVC012
     FM291600 VRB03KT P6SM SCT012
     FM292000 30012KT P6SM SKC
     FM300500 30008KT P6SM SCT012=



000
FTUS46 KMTR 290500
TAFSTS
TAF
KSTS 290538Z 2906/3006 15004KT P6SM OVC003
     FM290900 VRB03KT 3SM BR OVC002
     FM291200 00000KT 1/2SM FG VV002
     FM291700 VRB03KT P6SM SKC
     FM292100 17009KT P6SM SKC
     FM300500 VRB03KT P6SM BKN005=



000
FTUS46 KMTR 290500
TAFOAK
TAF
KOAK 290538Z 2906/3012 28006KT P6SM BKN005 OVC008
     FM291900 29011KT P6SM FEW008
     FM292200 28013KT P6SM FEW008
     FM300100 28012KT P6SM BKN008
     FM300600 27007KT P6SM OVC006=



000
FTUS46 KMTR 290500
TAFMRY
TAF
KMRY 290538Z 2906/3006 22005KT P6SM OVC004
     FM291700 VRB03KT P6SM SCT005 BKN008
     FM292100 28008KT P6SM SCT011
     FM300000 25007KT P6SM OVC009
     FM300400 23006KT P6SM OVC005=



000
FTUS46 KMTR 290500
TAFSJC
TAF
KSJC 290538Z 2906/3006 30006KT P6SM BKN009
     FM291100 11004KT P6SM OVC007
     FM291500 VRB03KT P6SM SCT008 OVC012
     FM291600 VRB03KT P6SM SCT012
     FM292000 30012KT P6SM SKC
     FM300500 30008KT P6SM SCT012=



000
FTUS46 KMTR 290500
TAFSNS
TAF
KSNS 290538Z 2906/3006 27010KT P6SM OVC006
     FM290900 25006KT P6SM OVC004
     FM291500 26003KT P6SM FEW005 BKN008
     FM291700 28005KT P6SM SCT010
     FM292000 27012KT P6SM SKC
     FM300200 27010KT P6SM BKN009=



000
FTUS46 KMTR 290300 AAB
TAFSFO
TAF AMD
KSFO 290354Z 2904/3006 27013KT P6SM FEW005 BKN007 OVC010
     FM290900 27008KT P6SM OVC005
     FM291800 28013KT P6SM SCT008
     FM292100 28018G25KT P6SM FEW007
     FM300100 27017G24KT P6SM BKN008=



000
FTUS46 KMTR 290300 AAA
TAFSFO
TAF AMD
KSFO 290301Z 2903/3006 27017G24KT P6SM SCT007 BKN010
     FM290600 28013KT P6SM FEW005 OVC009
     FM290800 27008KT P6SM OVC005
     FM291800 28013KT P6SM SCT008
     FM292100 28018G25KT P6SM FEW007
     FM300100 27017G24KT P6SM BKN008=



000
FTUS46 KMTR 290200 AAA
TAFSNS
TAF AMD
KSNS 290229Z 2902/2924 26010KT P6SM OVC008
     FM291200 25006KT P6SM OVC005
     FM291500 26003KT P6SM FEW005 BKN010
     FM291700 28005KT P6SM SCT012
     FM292000 27012KT P6SM SKC=



000
FTUS46 KMTR 290200 AAA
TAFSNS
TAF AMD
KSNS 290229Z 2902/2924 26010KT P6SM OVC008
     FM291200 25006KT P6SM OVC005
     FM291500 26003KT P6SM FEW005 BKN010
     FM291700 28005KT P6SM SCT012
     FM292000 27012KT P6SM SKC=



000
FTUS46 KMTR 290200 AAA
TAFMRY
TAF AMD
KMRY 290202Z 2902/2924 24007KT P6SM OVC006
     FM290800 23004KT P6SM OVC005
     FM291700 VRB03KT P6SM SCT008 BKN011
     FM292100 29006KT P6SM SCT012=



000
FTUS46 KMTR 290200 AAA
TAFOAK
TAF AMD
KOAK 290201Z 2902/3006 27014G20KT P6SM BKN008 BKN200
     FM290500 28007KT P6SM OVC005
     FM291900 29011KT P6SM FEW007
     FM292200 28013KT P6SM FEW007
     FM300100 28012KT P6SM BKN008=



000
FTUS46 KMTR 282300
TAFSJC
TAF
KSJC 282336Z 2900/2924 30013KT P6SM FEW015
     FM290500 30006KT P6SM BKN013
     FM291100 11004KT P6SM OVC009
     FM291500 VRB03KT P6SM SCT010 OVC015
     FM291600 VRB03KT P6SM SCT015
     FM292000 30010KT P6SM SKC=



000
FTUS46 KMTR 282300
TAFSTS
TAF
KSTS 282336Z 2900/2924 18010KT P6SM SKC
     FM290400 16005KT P6SM FEW007
     FM290600 VRB03KT 5SM BR OVC003
     FM291100 00000KT 1/2SM FG VV002
     FM291700 VRB03KT P6SM SKC
     FM292100 17009KT P6SM SKC=



000
FTUS46 KMTR 282300
TAFMRY
TAF
KMRY 282336Z 2900/2924 26008KT P6SM BKN012
     FM290300 24007KT P6SM OVC009
     FM290800 23004KT P6SM OVC005
     FM291700 VRB03KT P6SM SCT008 BKN011
     FM292100 29006KT P6SM SCT012=



000
FTUS46 KMTR 282300
TAFOAK
TAF
KOAK 282336Z 2900/3006 28014G20KT P6SM FEW008 SCT120
     FM290100 29012KT P6SM BKN010
     FM290500 28007KT P6SM OVC005
     FM291900 29011KT P6SM FEW007
     FM292200 28013KT P6SM FEW007
     FM300100 28012KT P6SM BKN008=



000
FTUS46 KMTR 282300
TAFSFO
TAF
KSFO 282336Z 2900/3006 27019G26KT P6SM FEW008 BKN013
     FM290400 28013KT P6SM FEW005 OVC009
     FM290800 27008KT P6SM OVC005
     FM291800 28013KT P6SM SCT008
     FM292100 28018G25KT P6SM FEW007
     FM300100 27017G24KT P6SM BKN008=



000
FTUS46 KMTR 282300
TAFLVK
TAF
KLVK 282336Z 2900/2924 28014KT P6SM SKC
     FM290400 28008KT P6SM FEW015
     FM290600 27007KT P6SM BKN012
     FM291000 27006KT P6SM OVC009
     FM291600 29003KT P6SM FEW012
     FM292100 28010KT P6SM SKC=



000
FTUS46 KMTR 282300
TAFSNS
TAF
KSNS 282336Z 2900/2924 27014KT P6SM FEW012
     FM290200 26010KT P6SM BKN012
     FM290700 25006KT P6SM OVC007
     FM291500 26003KT P6SM FEW005 BKN010
     FM291700 28005KT P6SM SCT012
     FM292000 27012KT P6SM SKC=



000
FTUS46 KMTR 282100 AAA
TAFLVK
TAF AMD
KLVK 282117Z 2821/2918 28011G15KT P6SM SKC
     FM290400 29009KT P6SM SCT012
     FM290600 29006KT P6SM BKN012
     FM291000 28007KT P6SM OVC009
     FM291700 29003KT P6SM SCT012=



000
FTUS46 KMTR 282100 AAA
TAFSFO
TAF AMD
KSFO 282103Z 2821/2924 28017G25KT P6SM FEW009 SCT012 SCT180
     FM290100 29012G18KT P6SM FEW008 BKN012
     FM290400 28010KT P6SM FEW005 OVC008
     FM292000 29014G20KT P6SM FEW008 SCT250=



000
FTUS46 KMTR 282000 AAA
TAFMRY
TAF AMD
KMRY 282027Z 2820/2918 29009KT P6SM FEW008 SCT011
      TEMPO 2820/2822 BKN010
     FM282200 29010KT P6SM FEW010 SCT012
     FM290000 24008KT P6SM BKN015
     FM290300 22005KT P6SM OVC009=



000
FTUS46 KMTR 281700
TAFLVK
TAF
KLVK 281739Z 2818/2918 29007KT P6SM BKN200
     FM282000 28014G20KT P6SM SKC
     FM290400 29009KT P6SM SCT012
     FM290600 29006KT P6SM BKN012
     FM291000 28007KT P6SM OVC009
     FM291700 29003KT P6SM SCT012=



000
FTUS46 KMTR 281700
TAFSTS
TAF
KSTS 281739Z 2818/2918 VRB03KT 6SM BR BKN008
     FM281830 19006KT P6SM FEW012 BKN150
     FM282200 18010KT P6SM SKC
     FM290500 VRB03KT P6SM BKN007
     FM291100 00000KT 4SM BR OVC004
     FM291700 21001KT 6SM BR OVC007=



000
FTUS46 KMTR 281700
TAFMRY
TAF
KMRY 281739Z 2818/2918 25004KT P6SM FEW008 SCT011
      TEMPO 2818/2820 BKN011
     FM282000 29010KT P6SM FEW010 SCT012
     FM290000 24008KT P6SM BKN015
     FM290300 22005KT P6SM OVC009=



000
FTUS46 KMTR 281700
TAFOAK
TAF
KOAK 281739Z 2818/2924 28008KT P6SM OVC006
     FM281900 29010G16KT P6SM FEW008 BKN015 BKN180
     FM282000 28014G20KT P6SM FEW010 FEW015 SCT180
     FM290100 29012KT P6SM SCT010 BKN012
     FM290500 28007KT P6SM OVC007
     FM292000 29011KT P6SM FEW007 FEW250=



000
FTUS46 KMTR 281700
TAFLVK
TAF
KLVK 281739Z 2818/2918 29007KT P6SM BKN200
     FM282000 28014G20KT P6SM SKC
     FM290400 29009KT P6SM SCT012
     FM290600 29006KT P6SM BKN012
     FM291000 28007KT P6SM OVC009
     FM291700 29003KT P6SM SCT012=



000
FTUS46 KMTR 281700
TAFMRY
TAF
KMRY 281739Z 2818/2918 25004KT P6SM FEW008 SCT011
      TEMPO 2818/2820 BKN011
     FM282000 29010KT P6SM FEW010 SCT012
     FM290000 24008KT P6SM BKN015
     FM290300 22005KT P6SM OVC009=



000
FTUS46 KMTR 281700
TAFSTS
TAF
KSTS 281739Z 2818/2918 VRB03KT 6SM BR BKN008
     FM281830 19006KT P6SM FEW012 BKN150
     FM282200 18010KT P6SM SKC
     FM290500 VRB03KT P6SM BKN007
     FM291100 00000KT 4SM BR OVC004
     FM291700 21001KT 6SM BR OVC007=



000
FTUS46 KMTR 281700
TAFSFO
TAF
KSFO 281739Z 2818/2924 28011KT P6SM FEW005 OVC008
     FM281900 30014G20KT P6SM SCT008 BKN014
     FM282000 29016G24KT P6SM FEW012 FEW016 SCT180
     FM290100 29012G18KT P6SM FEW008 BKN012
     FM290400 28010KT P6SM FEW005 OVC008
     FM292000 29014G20KT P6SM FEW008 SCT250=



000
FTUS46 KMTR 281700
TAFSFO
TAF
KSFO 281739Z 2818/2924 28011KT P6SM FEW005 OVC008
     FM281900 30014G20KT P6SM SCT008 BKN014
     FM282000 29016G24KT P6SM FEW012 FEW016 SCT180
     FM290100 29012G18KT P6SM FEW008 BKN012
     FM290400 28010KT P6SM FEW005 OVC008
     FM292000 29014G20KT P6SM FEW008 SCT250=



000
FTUS46 KMTR 281700
TAFSJC
TAF
KSJC 281739Z 2818/2918 30004KT P6SM FEW019 BKN100
     FM282200 31013G19KT P6SM SKC
     FM290500 30004KT P6SM BKN015
     FM290900 32006KT P6SM OVC009
     FM291500 VRB03KT P6SM OVC015=



000
FTUS46 KMTR 281700
TAFSNS
TAF
KSNS 281739Z 2818/2918 VRB04KT P6SM SCT011
     FM281830 29011KT P6SM FEW011 FEW014
     FM282100 28014G22KT P6SM FEW015
     FM290200 29009KT P6SM BKN015
     FM290700 25006KT P6SM OVC007
     FM291700 26003KT P6SM FEW007 SCT015=



000
FTUS46 KMTR 281700
TAFSNS
TAF
KSNS 281739Z 2818/2918 VRB04KT P6SM SCT011
     FM281830 29011KT P6SM FEW011 FEW014
     FM282100 28014G22KT P6SM FEW015
     FM290200 29009KT P6SM BKN015
     FM290700 25006KT P6SM OVC007
     FM291700 26003KT P6SM FEW007 SCT015=



000
FTUS46 KMTR 281700
TAFOAK
TAF
KOAK 281739Z 2818/2924 28008KT P6SM OVC006
     FM281900 29010G16KT P6SM FEW008 BKN015 BKN180
     FM282000 28014G20KT P6SM FEW010 FEW015 SCT180
     FM290100 29012KT P6SM SCT010 BKN012
     FM290500 28007KT P6SM OVC007
     FM292000 29011KT P6SM FEW007 FEW250=



000
FTUS46 KMTR 281700
TAFSJC
TAF
KSJC 281739Z 2818/2918 30004KT P6SM FEW019 BKN100
     FM282200 31013G19KT P6SM SKC
     FM290500 30004KT P6SM BKN015
     FM290900 32006KT P6SM OVC009
     FM291500 VRB03KT P6SM OVC015=



000
FTUS46 KMTR 281500 AAA
TAFSTS
TAF AMD
KSTS 281542Z 2816/2912 VRB03KT 4SM BR OVC004
     FM281700 VRB03KT P6SM SCT010
     FM281900 19006KT P6SM FEW012
     FM282200 18010KT P6SM SKC
     FM290500 VRB03KT P6SM BKN012=



000
FTUS46 KMTR 281500 AAA
TAFSFO
TAF AMD
KSFO 281502Z 2815/2918 26010KT P6SM FEW004 OVC006
     FM281600 27011KT P6SM BKN008 OVC012
     FM281800 28011KT P6SM SCT010 BKN014
     FM281900 30014G20KT P6SM FEW010 SCT014
     FM282100 29016G24KT P6SM FEW012 FEW016
     FM290100 29012G18KT P6SM FEW008 BKN012
     FM290400 28010KT P6SM FEW005 OVC008=



000
FTUS46 KMTR 281500 AAA
TAFSFO
TAF AMD
KSFO 281502Z 2815/2918 26010KT P6SM FEW004 OVC006
     FM281600 27011KT P6SM BKN008 OVC012
     FM281800 28011KT P6SM SCT010 BKN014
     FM281900 30014G20KT P6SM FEW010 SCT014
     FM282100 29016G24KT P6SM FEW012 FEW016
     FM290100 29012G18KT P6SM FEW008 BKN012
     FM290400 28010KT P6SM FEW005 OVC008=



000
FTUS46 KMTR 281100
TAFSNS
TAF
KSNS 281120Z 2812/2912 27005KT P6SM OVC008
     FM281700 27006KT P6SM SCT009 BKN012
     FM281800 29011KT P6SM FEW011 FEW014
     FM282100 28014G22KT P6SM FEW015
     FM290200 29009KT P6SM OVC009=



000
FTUS46 KMTR 281100
TAFSFO
TAF
KSFO 281120Z 2812/2918 27010G15KT P6SM FEW004 OVC006
     FM281600 27011KT P6SM BKN008 OVC012
     FM281800 28011KT P6SM SCT010 BKN014
     FM281900 30014G20KT P6SM FEW010 SCT014
     FM282100 29016G24KT P6SM FEW012 FEW016
     FM290100 29012G18KT P6SM FEW008 BKN012
     FM290400 28010KT P6SM FEW005 OVC008=



000
FTUS46 KMTR 281100
TAFSNS
TAF
KSNS 281120Z 2812/2912 27005KT P6SM OVC008
     FM281700 27006KT P6SM SCT009 BKN012
     FM281800 29011KT P6SM FEW011 FEW014
     FM282100 28014G22KT P6SM FEW015
     FM290200 29009KT P6SM OVC009=



000
FTUS46 KMTR 281100
TAFLVK
TAF
KLVK 281120Z 2812/2912 28006KT P6SM OVC012
     FM281700 27007KT P6SM FEW020
     FM282000 28014G20KT P6SM SKC
     FM290400 29009KT P6SM SCT012
     FM290600 29006KT P6SM BKN010=



000
FTUS46 KMTR 281100
TAFMRY
TAF
KMRY 281120Z 2812/2912 24006KT P6SM OVC006
     FM281500 24006KT P6SM BKN006 OVC008
     FM281800 29008KT P6SM FEW008 BKN011
     FM281900 29011KT P6SM FEW010 SCT012
     FM290200 24004KT P6SM OVC009=



000
FTUS46 KMTR 281100
TAFSFO
TAF
KSFO 281120Z 2812/2918 27010G15KT P6SM FEW004 OVC006
     FM281600 27011KT P6SM BKN008 OVC012
     FM281800 28011KT P6SM SCT010 BKN014
     FM281900 30014G20KT P6SM FEW010 SCT014
     FM282100 29016G24KT P6SM FEW012 FEW016
     FM290100 29012G18KT P6SM FEW008 BKN012
     FM290400 28010KT P6SM FEW005 OVC008=



000
FTUS46 KMTR 281100
TAFOAK
TAF
KOAK 281120Z 2812/2918 26008KT P6SM OVC006
     FM281600 26008KT P6SM BKN007 OVC010
     FM281800 28008KT P6SM SCT008 BKN012
     FM281900 29010G16KT P6SM FEW008 SCT014
     FM282100 28014G20KT P6SM FEW010 FEW015
     FM290200 29012KT P6SM SCT010 BKN012=



000
FTUS46 KMTR 281100
TAFSJC
TAF
KSJC 281120Z 2812/2912 VRB04KT P6SM OVC015
     FM281700 30004KT P6SM FEW020
     FM282200 31013G19KT P6SM SKC
     FM290600 30004KT P6SM BKN020
     FM291000 32002KT P6SM OVC015=



000
FTUS46 KMTR 281100
TAFSTS
TAF
KSTS 281120Z 2812/2912 00000KT 6SM BR OVC004
     FM281500 VRB02KT P6SM BKN008
     FM281700 VRB03KT P6SM SCT010
     FM281900 19006KT P6SM FEW012
     FM282200 18010KT P6SM SKC
     FM290500 VRB03KT P6SM BKN012=



000
FTUS46 KMTR 281100
TAFLVK
TAF
KLVK 281120Z 2812/2912 28006KT P6SM OVC012
     FM281700 27007KT P6SM FEW020
     FM282000 28014G20KT P6SM SKC
     FM290400 29009KT P6SM SCT012
     FM290600 29006KT P6SM BKN010=



000
FTUS46 KMTR 281100
TAFOAK
TAF
KOAK 281120Z 2812/2918 26008KT P6SM OVC006
     FM281600 26008KT P6SM BKN007 OVC010
     FM281800 28008KT P6SM SCT008 BKN012
     FM281900 29010G16KT P6SM FEW008 SCT014
     FM282100 28014G20KT P6SM FEW010 FEW015
     FM290200 29012KT P6SM SCT010 BKN012=



000
FTUS46 KMTR 281100
TAFMRY
TAF
KMRY 281120Z 2812/2912 24006KT P6SM OVC006
     FM281500 24006KT P6SM BKN006 OVC008
     FM281800 29008KT P6SM FEW008 BKN011
     FM281900 29011KT P6SM FEW010 SCT012
     FM290200 24004KT P6SM OVC009=



000
FTUS46 KMTR 281100
TAFSTS
TAF
KSTS 281120Z 2812/2912 00000KT 6SM BR OVC004
     FM281500 VRB02KT P6SM BKN008
     FM281700 VRB03KT P6SM SCT010
     FM281900 19006KT P6SM FEW012
     FM282200 18010KT P6SM SKC
     FM290500 VRB03KT P6SM BKN012=



000
FTUS46 KMTR 281100
TAFSJC
TAF
KSJC 281120Z 2812/2912 VRB04KT P6SM OVC015
     FM281700 30004KT P6SM FEW020
     FM282200 31013G19KT P6SM SKC
     FM290600 30004KT P6SM BKN020
     FM291000 32002KT P6SM OVC015=



000
FTUS46 KMTR 280900 AAA
TAFSFO
TAF AMD
KSFO 280906Z 2809/2912 28009KT P6SM OVC006
     FM281000 26006KT P6SM FEW004 OVC006
     FM281600 25010KT P6SM BKN010 OVC020
     FM281900 30014G20KT P6SM FEW010 SCT020
     FM290300 29012KT P6SM BKN012=



000
FTUS46 KMTR 280900 AAA
TAFSFO
TAF AMD
KSFO 280906Z 2809/2912 28009KT P6SM OVC006
     FM281000 26006KT P6SM FEW004 OVC006
     FM281600 25010KT P6SM BKN010 OVC020
     FM281900 30014G20KT P6SM FEW010 SCT020
     FM290300 29012KT P6SM BKN012=



000
FTUS46 KMTR 280500
TAFSJC
TAF
KSJC 280520Z 2806/2906 30007KT P6SM SCT012
     FM280700 VRB04KT P6SM OVC015
     FM281800 30012KT P6SM FEW020
     FM290300 30007KT P6SM BKN020=



000
FTUS46 KMTR 280500
TAFMRY
TAF
KMRY 280520Z 2806/2906 24007KT P6SM OVC009
     FM281800 29012KT P6SM FEW012
     FM290300 24004KT P6SM OVC009=



000
FTUS46 KMTR 280500
TAFOAK
TAF
KOAK 280520Z 2806/2912 27006KT P6SM OVC009
     FM280800 26005KT P6SM SCT010 OVC012
     FM281800 27008KT P6SM SCT015 BKN020
     FM281900 29017G22KT P6SM SCT020
     FM290300 29012KT P6SM SCT015=



000
FTUS46 KMTR 280500
TAFSFO
TAF
KSFO 280520Z 2806/2912 28017KT P6SM BKN007 OVC015
     FM281000 27006KT P6SM FEW007 OVC012
     FM281900 30014G20KT P6SM SCT015 BKN200
     FM290300 29012KT P6SM BKN012=



000
FTUS46 KMTR 280500
TAFSTS
TAF
KSTS 280520Z 2806/2906 17004KT P6SM SCT015
      TEMPO 2806/2808 BKN015
     FM280800 VRB03KT P6SM OVC012
     FM281200 00000KT 4SM BR OVC007
     FM281900 19007KT P6SM FEW012
     FM290300 VRB03KT P6SM BKN012=



000
FTUS46 KMTR 280500
TAFSNS
TAF
KSNS 280520Z 2806/2906 28007KT P6SM OVC010
     FM281000 26004KT P6SM OVC012
     FM281200 VRB03KT P6SM OVC010
     FM281800 29014KT P6SM FEW012
     FM290200 29009KT P6SM OVC009=



000
FTUS46 KMTR 280500
TAFLVK
TAF
KLVK 280520Z 2806/2906 28009KT P6SM FEW016 SCT020
     FM280800 28005KT P6SM OVC015
     FM281900 29012KT P6SM FEW020
     FM290300 29009KT P6SM SCT012=



000
FTUS46 KMTR 272300
TAFSTS
TAF
KSTS 272324Z 2800/2824 19008KT P6SM SKC
     FM280400 VRB03KT P6SM OVC015
     FM281200 00000KT 4SM BR OVC007
     FM281900 19007KT P6SM FEW012=



000
FTUS46 KMTR 272300
TAFSJC
TAF
KSJC 272324Z 2800/2824 30012KT P6SM SKC
     FM280300 30009KT P6SM SCT015
     FM280700 VRB04KT P6SM OVC015
     FM281800 30007KT P6SM FEW020=



000
FTUS46 KMTR 272300
TAFLVK
TAF
KLVK 272324Z 2800/2824 28017KT P6SM SKC
     FM280300 28009KT P6SM FEW016 FEW020
     FM280800 28005KT P6SM OVC015
     FM281900 29012KT P6SM FEW020=



000
FTUS46 KMTR 272300
TAFSNS
TAF
KSNS 272324Z 2800/2824 28012G18KT P6SM FEW020
     FM280400 28007KT P6SM BKN015
     FM281000 26004KT P6SM OVC012
     FM281200 VRB03KT P6SM OVC010
     FM281800 29014KT P6SM FEW012=



000
FTUS46 KMTR 272300
TAFMRY
TAF
KMRY 272324Z 2800/2824 27008G15KT P6SM BKN015
      TEMPO 2801/2804 SCT015
     FM280400 23005KT P6SM OVC014
     FM280600 23003KT P6SM OVC012
     FM281000 VRB03KT P6SM OVC010
     FM281800 29012KT P6SM FEW012=



000
FTUS46 KMTR 272300
TAFOAK
TAF
KOAK 272324Z 2800/2906 28016KT P6SM FEW016 SCT022
     FM280400 27006KT P6SM FEW012 BKN015
     FM280800 26005KT P6SM SCT010 OVC012
     FM281800 27008KT P6SM SCT015 BKN020
     FM281900 29017G22KT P6SM SCT020
     FM290300 29012KT P6SM SCT015=



000
FTUS46 KMTR 272300
TAFSFO
TAF
KSFO 272324Z 2800/2906 29017G25KT P6SM FEW010 BKN015
      TEMPO 2800/2802 FEW010 SCT015
     FM280200 28017G25KT P6SM FEW008 OVC015
     FM280400 28017KT P6SM OVC015
     FM281000 27006KT P6SM FEW007 OVC012
     FM281900 30014G20KT P6SM SCT015 BKN200
     FM290300 29012KT P6SM BKN012=



000
FTUS46 KMTR 272200 AAB
TAFSFO
TAF AMD
KSFO 272245Z 2723/2824 29017G25KT P6SM FEW010 BKN015
      TEMPO 2800/2802 FEW010 SCT015
     FM280200 28017G25KT P6SM FEW008 OVC015
     FM280400 28017KT P6SM OVC015
     FM281000 27006KT P6SM FEW007 OVC012
     FM281900 30014KT P6SM SCT015 BKN200=



000
FTUS46 KMTR 272100 AAA
TAFSFO
TAF AMD
KSFO 272100Z 2721/2824 29017G22KT P6SM FEW012
     FM280100 29009KT P6SM FEW010 SCT020
     FM280400 28007KT P6SM FEW008 BKN015
     FM281000 27006KT P6SM FEW007 OVC012
     FM281900 30014KT P6SM SCT015 BKN200=



000
FTUS46 KMTR 271700
TAFOAK
TAF
KOAK 271722Z 2718/2824 26009KT P6SM FEW015 SCT020
      TEMPO 2718/2719 BKN020
     FM272000 28016KT P6SM FEW016 SCT022
     FM280400 27006KT P6SM FEW012 BKN015
     FM280800 26005KT P6SM SCT010 OVC012
     FM281800 27008KT P6SM SCT015 BKN020
     FM281900 29012KT P6SM SCT020=



000
FTUS46 KMTR 271700
TAFMRY
TAF
KMRY 271722Z 2718/2818 VRB03KT P6SM OVC013
     FM272100 27008G15KT P6SM FEW015 SCT020
     FM280400 23005KT P6SM BKN014
     FM280600 23003KT P6SM OVC012
     FM281000 VRB03KT P6SM OVC010=



000
FTUS46 KMTR 271700
TAFSFO
TAF
KSFO 271722Z 2718/2824 24009KT P6SM FEW008 SCT016 BKN020
      TEMPO 2718/2719 SCT020
     FM271900 29017G22KT P6SM FEW020
     FM280100 29009KT P6SM FEW010 SCT020
     FM280400 28007KT P6SM FEW008 BKN015
     FM281000 27006KT P6SM FEW007 OVC012
     FM281900 30014KT P6SM SCT015 BKN200=



000
FTUS46 KMTR 271700
TAFSNS
TAF
KSNS 271722Z 2718/2818 29012KT P6SM FEW012 OVC016
     FM272000 28012G18KT P6SM FEW020
     FM280400 28007KT P6SM BKN015
     FM281000 26004KT P6SM OVC012
     FM281200 VRB03KT P6SM OVC010=



000
FTUS46 KMTR 271700
TAFLVK
TAF
KLVK 271722Z 2718/2818 30008KT P6SM SKC
     FM272000 28012G18KT P6SM SKC
     FM280300 28009KT P6SM FEW016 FEW020
     FM280800 28005KT P6SM OVC015=



000
FTUS46 KMTR 271700
TAFSTS
TAF
KSTS 271722Z 2718/2818 00000KT 6SM BR OVC014
     FM271900 VRB04KT P6SM BKN015
     FM272000 19008KT P6SM SKC
     FM280400 VRB03KT P6SM OVC015
     FM281200 00000KT 4SM BR OVC007=



000
FTUS46 KMTR 271700
TAFSJC
TAF
KSJC 271722Z 2718/2818 30006KT P6SM FEW015
     FM272100 30012KT P6SM SKC
     FM280300 30009KT P6SM SCT015
     FM280700 VRB04KT P6SM OVC015=



000
FTUS46 KMTR 271400 AAA
TAFSFO
TAF AMD
KSFO 271453Z 2715/2818 24007KT P6SM FEW008 SCT011 OVC015
     FM271800 20008KT P6SM FEW010 FEW014 SCT020
      TEMPO 2718/2720 BKN020
     FM272000 29017G22KT P6SM FEW015 FEW020
     FM280100 29009KT P6SM FEW010 SCT020
     FM280400 27007KT P6SM FEW008 BKN015
     FM281000 27007KT P6SM FEW007 OVC012=



    US Dept of Commerce
    National Oceanic and Atmospheric Administration
    National Weather Service
    1325 East West Highway
    Silver Spring, MD 20910
    Page Author: NWS Internet Services Team
Disclaimer
Information Quality
Credits
Glossary
Privacy Policy
Freedom of Information Act (FOIA)
About Us
Career Opportunities